Time;durP1;ratioP1;P1;durP2;ratioP2;P2;SDS_P1;SDS_P2;PMS_P1;PMS_P2;Temp;Humidity;BMP_temperature;BMP_pressure;BME280_temperature;BME280_humidity;BME280_pressure;Samples;Min_cycle;Max_cycle;Signal;HPM_P1;HPM_P2
2023/06/17 00:01:47;;;;;;;0.00;0.00;;;;;;;14.60;64.85;99350.81;5070511;28;20041;-64
2023/06/17 00:04:19;;;;;;;0.00;0.00;;;;;;;14.59;66.06;99359.97;5081764;28;20146;-65
2023/06/17 00:06:47;;;;;;;0.00;0.00;;;;;;;14.45;66.50;99359.63;5075179;28;20040;-64
2023/06/17 00:09:14;;;;;;;0.00;0.00;;;;;;;14.41;68.44;99356.66;5076385;28;20135;-64
2023/06/17 00:11:42;;;;;;;0.00;0.00;;;;;;;14.28;66.98;99357.16;5075679;28;20578;-64
2023/06/17 00:14:10;;;;;;;0.00;0.00;;;;;;;14.25;67.44;99352.28;5060755;28;20040;-64
2023/06/17 00:16:43;;;;;;;0.10;0.10;;;;;;;14.17;68.46;99355.47;5082203;28;20040;-64
2023/06/17 00:19:16;;;;;;;0.10;0.10;;;;;;;14.24;67.41;99356.84;5076618;28;20072;-64
2023/06/17 00:21:49;;;;;;;0.00;0.00;;;;;;;14.27;67.72;99350.13;5074054;28;20058;-64
2023/06/17 00:24:17;;;;;;;0.00;0.00;;;;;;;14.24;68.02;99342.56;5071131;28;20039;-64
2023/06/17 00:26:45;;;;;;;0.00;0.00;;;;;;;14.15;68.78;99344.16;5076795;28;20440;-64
2023/06/17 00:29:12;;;;;;;0.10;0.10;;;;;;;14.24;67.36;99331.78;5078951;28;20040;-63
2023/06/17 00:31:40;;;;;;;0.10;0.10;;;;;;;14.20;66.23;99328.00;5081453;28;20044;-64
2023/06/17 00:34:07;;;;;;;0.00;0.00;;;;;;;14.19;67.50;99332.56;5073016;28;20049;-64
2023/06/17 00:36:35;;;;;;;0.10;0.10;;;;;;;14.03;69.54;99333.59;5081451;28;20056;-64
2023/06/17 00:39:05;;;;;;;0.00;0.00;;;;;;;13.87;71.09;99339.97;5078263;28;20131;-64
2023/06/17 00:41:32;;;;;;;0.08;0.08;;;;;;;13.61;73.07;99331.75;5076953;28;20040;-64
2023/06/17 00:44:00;;;;;;;0.00;0.00;;;;;;;13.61;73.01;99339.81;5072963;28;20163;-64
2023/06/17 00:46:45;;;;;;;0.08;0.08;;;;;;;13.60;73.00;99332.81;5071908;28;20280;-64
2023/06/17 00:49:13;;;;;;;0.10;0.10;;;;;;;13.69;72.05;99333.13;5076689;28;20043;-64
2023/06/17 00:51:40;;;;;;;0.00;0.00;;;;;;;13.76;70.26;99339.13;5074162;28;20072;-64
2023/06/17 00:54:11;;;;;;;0.00;0.00;;;;;;;13.85;69.38;99339.41;5074462;28;20335;-64
2023/06/17 00:56:38;;;;;;;0.10;0.10;;;;;;;13.82;68.59;99321.91;5072600;28;20481;-64
2023/06/17 00:59:06;;;;;;;0.08;0.08;;;;;;;13.84;69.66;99335.13;5072621;28;20117;-64
2023/06/17 01:01:35;;;;;;;0.10;0.10;;;;;;;13.84;70.99;99340.50;5079383;28;20528;-64
2023/06/17 01:04:04;;;;;;;0.10;0.10;;;;;;;13.71;73.00;99339.09;5076202;28;20394;-64
2023/06/17 01:06:35;;;;;;;0.00;0.00;;;;;;;13.73;71.72;99334.25;5081826;28;20055;-64
2023/06/17 01:09:05;;;;;;;0.10;0.10;;;;;;;13.69;71.23;99330.44;5081903;28;20048;-64
2023/06/17 01:11:34;;;;;;;0.10;0.10;;;;;;;13.55;73.31;99335.47;5083267;28;20104;-64
2023/06/17 01:14:01;;;;;;;0.00;0.00;;;;;;;13.62;71.94;99329.84;5079158;28;20071;-64
2023/06/17 01:16:31;;;;;;;0.10;0.10;;;;;;;13.58;72.53;99326.88;5071290;28;20495;-64
2023/06/17 01:18:59;;;;;;;;;;;;;;;13.46;72.67;99335.16;5079247;28;20048;-64
2023/06/17 01:21:28;;;;;;;0.00;0.00;;;;;;;13.23;74.69;99330.09;5073498;28;20355;-64
2023/06/17 01:23:58;;;;;;;0.10;0.10;;;;;;;13.23;74.52;99324.69;5086048;28;20050;-64
2023/06/17 01:26:28;;;;;;;0.00;0.00;;;;;;;13.17;74.23;99321.97;5078991;28;20161;-64
2023/06/17 01:28:59;;;;;;;0.00;0.00;;;;;;;13.16;73.67;99325.75;5074632;28;20051;-64
2023/06/17 01:31:27;;;;;;;0.20;0.20;;;;;;;13.07;73.69;99321.88;5079437;28;20090;-64
2023/06/17 01:33:54;;;;;;;0.00;0.00;;;;;;;13.02;74.24;99319.16;5080178;28;20163;-64
2023/06/17 01:36:23;;;;;;;0.10;0.10;;;;;;;12.90;75.30;99321.19;5081812;28;20082;-64
2023/06/17 01:38:52;;;;;;;0.10;0.10;;;;;;;12.83;76.17;99315.22;5097493;28;20064;-64
2023/06/17 01:41:23;;;;;;;0.17;0.17;;;;;;;12.68;77.25;99314.03;5080789;28;20129;-64
2023/06/17 01:43:52;;;;;;;0.10;0.10;;;;;;;12.65;76.24;99313.69;5077740;28;20531;-64
2023/06/17 01:46:20;;;;;;;0.10;0.10;;;;;;;12.80;75.69;99310.34;5076904;28;20036;-64
2023/06/17 01:48:48;;;;;;;0.15;0.15;;;;;;;12.70;76.86;99305.69;5073881;28;21167;-64
2023/06/17 01:51:16;;;;;;;0.10;0.10;;;;;;;12.70;77.49;99316.44;5082001;28;20048;-64
2023/06/17 01:53:44;;;;;;;0.00;0.00;;;;;;;12.65;77.13;99314.50;5088952;28;20063;-64
2023/06/17 01:56:11;;;;;;;0.00;0.00;;;;;;;12.63;77.46;99313.97;5078751;28;20102;-64
2023/06/17 01:58:39;;;;;;;0.10;0.10;;;;;;;12.55;76.97;99316.28;5081909;28;20044;-64
2023/06/17 02:01:08;;;;;;;0.10;0.10;;;;;;;12.40;77.49;99323.13;5081841;28;20067;-65
2023/06/17 02:03:37;;;;;;;0.10;0.10;;;;;;;12.46;76.72;99321.31;5080524;28;20066;-64
2023/06/17 02:06:06;;;;;;;0.20;0.10;;;;;;;12.35;77.88;99324.94;5079532;28;20398;-64
2023/06/17 02:08:34;;;;;;;0.10;0.10;;;;;;;12.28;78.35;99320.59;5077387;28;20048;-63
2023/06/17 02:11:03;;;;;;;0.20;0.20;;;;;;;12.35;77.95;99314.19;5079708;28;20044;-64
2023/06/17 02:13:32;;;;;;;0.10;0.10;;;;;;;12.26;78.60;99322.72;5073904;28;20044;-65
2023/06/17 02:16:00;;;;;;;0.10;0.10;;;;;;;12.40;77.83;99309.69;5082702;28;20040;-65
2023/06/17 02:18:32;;;;;;;0.10;0.10;;;;;;;12.38;78.15;99313.69;5074584;28;20139;-64
2023/06/17 02:21:01;;;;;;;0.10;0.10;;;;;;;12.17;79.42;99310.75;5080215;28;20495;-65
2023/06/17 02:23:29;;;;;;;0.10;0.10;;;;;;;12.11;80.03;99310.97;5080884;28;20078;-64
2023/06/17 02:25:57;;;;;;;0.55;0.10;;;;;;;12.18;79.10;99308.88;5074683;28;20406;-64
2023/06/17 02:28:26;;;;;;;0.10;0.10;;;;;;;12.17;79.56;99305.41;5086538;28;20044;-65
2023/06/17 02:30:54;;;;;;;0.10;0.10;;;;;;;12.14;80.05;99305.09;5090166;28;20055;-64
2023/06/17 02:33:22;;;;;;;0.05;0.05;;;;;;;12.05;81.34;99300.13;5089396;28;20048;-65
2023/06/17 02:35:51;;;;;;;0.10;0.10;;;;;;;12.07;80.15;99308.78;5075405;28;20447;-65
2023/06/17 02:38:24;;;;;;;0.10;0.10;;;;;;;12.07;80.56;99306.06;5081162;28;20059;-64
2023/06/17 02:40:52;;;;;;;0.10;0.10;;;;;;;12.20;83.11;99301.38;5071647;28;20048;-64
2023/06/17 02:43:20;;;;;;;0.10;0.10;;;;;;;12.22;79.61;99289.31;5085579;28;20036;-64
2023/06/17 02:45:47;;;;;;;0.10;0.10;;;;;;;12.19;81.20;99303.28;5074621;28;20082;-64
2023/06/17 02:48:15;;;;;;;0.00;0.00;;;;;;;12.18;80.96;99298.97;5081211;28;20043;-64
2023/06/17 02:50:43;;;;;;;0.10;0.10;;;;;;;12.19;80.70;99299.78;5077184;28;20269;-64
2023/06/17 02:53:12;;;;;;;0.10;0.10;;;;;;;12.30;80.62;99296.13;5076409;28;20483;-63
2023/06/17 02:55:45;;;;;;;0.10;0.10;;;;;;;12.39;80.19;99307.25;5080819;28;20056;-64
2023/06/17 02:58:18;;;;;;;0.25;0.20;;;;;;;12.30;79.71;99299.66;5078490;28;20040;-64
2023/06/17 03:00:48;;;;;;;0.03;0.03;;;;;;;12.17;80.69;99296.53;5074820;28;20071;-64
2023/06/17 03:03:16;;;;;;;0.10;0.10;;;;;;;12.34;80.37;99289.19;5087619;28;20052;-64
2023/06/17 03:05:44;;;;;;;0.10;0.10;;;;;;;12.35;78.87;99300.75;5081244;28;20046;-64
2023/06/17 03:08:15;;;;;;;0.10;0.10;;;;;;;12.22;79.42;99299.28;5076880;28;20029;-64
2023/06/17 03:10:42;;;;;;;;;;;;;;;11.87;80.89;99300.47;5079396;28;20048;-64
2023/06/17 03:13:13;;;;;;;;;;;;;;;11.76;81.95;99294.13;5073379;28;20457;-62
2023/06/17 03:15:45;;;;;;;0.10;0.10;;;;;;;11.90;81.69;99291.09;5093677;28;19921;-65
2023/06/17 03:18:13;;;;;;;0.10;0.10;;;;;;;11.91;82.88;99285.47;5074416;28;20568;-65
2023/06/17 03:20:44;;;;;;;0.10;0.10;;;;;;;11.87;82.52;99289.72;5067867;28;20044;-65
2023/06/17 03:23:15;;;;;;;0.20;0.20;;;;;;;11.76;82.46;99291.44;5062948;28;20380;-65
2023/06/17 03:25:44;;;;;;;0.10;0.10;;;;;;;11.69;82.80;99284.63;5070621;28;20487;-65
2023/06/17 03:28:12;;;;;;;0.20;0.20;;;;;;;11.68;82.93;99294.53;5078362;28;20080;-65
2023/06/17 03:30:39;;;;;;;0.20;0.20;;;;;;;11.70;82.52;99292.41;5082894;28;20435;-65
2023/06/17 03:33:07;;;;;;;0.10;0.10;;;;;;;11.84;82.64;99287.50;5079076;28;20601;-64
2023/06/17 03:35:35;;;;;;;0.10;0.10;;;;;;;11.93;81.26;99296.78;5076402;28;20040;-65
2023/06/17 03:38:02;;;;;;;0.10;0.10;;;;;;;12.02;81.18;99297.16;5054622;28;20044;-65
2023/06/17 03:40:31;;;;;;;0.20;0.20;;;;;;;12.20;80.46;99298.69;5083917;28;20126;-63
2023/06/17 03:43:01;;;;;;;0.10;0.10;;;;;;;12.65;78.70;99293.00;5077911;28;20110;-65
2023/06/17 03:45:30;;;;;;;0.13;0.13;;;;;;;13.09;75.76;99295.53;5079627;28;20044;-62
2023/06/17 03:48:00;;;;;;;0.10;0.10;;;;;;;12.76;76.53;99298.50;5072476;28;20055;-63
2023/06/17 03:50:28;;;;;;;0.10;0.10;;;;;;;13.20;74.97;99292.91;5070479;28;20047;-65
2023/06/17 03:52:59;;;;;;;0.10;0.10;;;;;;;13.94;71.16;99287.47;5091418;28;20054;-63
2023/06/17 03:55:32;;;;;;;0.10;0.10;;;;;;;14.78;68.42;99296.38;5071207;28;20235;-63
2023/06/17 03:58:03;;;;;;;0.00;0.00;;;;;;;15.56;65.42;99302.53;5054242;28;20586;-63
2023/06/17 04:00:33;;;;;;;0.20;0.20;;;;;;;16.54;60.67;99299.19;5063160;28;20102;-63
2023/06/17 04:03:01;;;;;;;0.10;0.10;;;;;;;16.60;61.19;99297.28;5073664;28;20089;-63
2023/06/17 04:05:33;;;;;;;0.08;0.08;;;;;;;16.38;61.03;99303.09;5081460;28;20040;-63
2023/06/17 04:08:02;;;;;;;0.10;0.10;;;;;;;16.73;60.15;99296.63;5083644;28;20054;-63
2023/06/17 04:10:32;;;;;;;0.00;0.00;;;;;;;17.11;58.80;99306.94;5076962;28;20074;-63
2023/06/17 04:12:59;;;;;;;0.00;0.00;;;;;;;17.77;55.79;99303.63;5071472;28;20036;-63
2023/06/17 04:15:27;;;;;;;0.00;0.00;;;;;;;18.54;53.89;99305.38;5070364;28;20304;-63
2023/06/17 04:17:55;;;;;;;0.10;0.10;;;;;;;18.62;53.98;99307.44;5077078;28;20135;-63
2023/06/17 04:20:25;;;;;;;0.05;0.05;;;;;;;19.35;50.60;99307.97;5079122;28;20128;-63
2023/06/17 04:22:53;;;;;;;0.10;0.10;;;;;;;19.41;50.10;99306.75;5081121;28;20063;-63
2023/06/17 04:25:22;;;;;;;0.00;0.00;;;;;;;18.64;52.51;99316.09;5082978;28;20561;-64
2023/06/17 04:27:56;;;;;;;0.00;0.00;;;;;;;18.61;52.82;99321.31;5076209;28;20414;-63
2023/06/17 04:30:26;;;;;;;0.00;0.00;;;;;;;18.48;53.69;99320.13;5069615;28;20048;-64
2023/06/17 04:32:57;;;;;;;0.15;0.10;;;;;;;18.88;52.21;99321.47;5070806;28;20533;-63
2023/06/17 04:35:25;;;;;;;0.00;0.00;;;;;;;19.19;51.79;99315.53;5073822;28;20045;-62
2023/06/17 04:37:54;;;;;;;0.00;0.00;;;;;;;19.59;50.90;99308.59;5078807;28;20083;-63
2023/06/17 04:40:22;;;;;;;0.00;0.00;;;;;;;19.65;50.42;99312.03;5072736;28;20547;-63
2023/06/17 04:42:50;;;;;;;0.00;0.00;;;;;;;19.36;51.42;99313.06;5071346;28;20051;-63
2023/06/17 04:45:20;;;;;;;0.10;0.10;;;;;;;19.86;49.94;99317.91;5077602;28;20495;-63
2023/06/17 04:47:51;;;;;;;0.00;0.00;;;;;;;20.10;49.93;99319.63;5069820;28;20040;-63
2023/06/17 04:50:23;;;;;;;0.10;0.10;;;;;;;20.56;48.94;99313.22;5078735;28;20132;-63
2023/06/17 04:52:52;;;;;;;0.10;0.10;;;;;;;20.60;48.34;99312.31;5077567;28;20040;-63
2023/06/17 04:55:22;;;;;;;0.10;0.10;;;;;;;20.94;47.66;99307.47;5074200;28;20108;-63
2023/06/17 04:57:50;;;;;;;0.08;0.08;;;;;;;21.65;46.26;99315.78;5081398;28;20161;-63
2023/06/17 05:00:34;;;;;;;0.00;0.00;;;;;;;21.09;47.59;99312.53;5073765;28;20105;-63
2023/06/17 05:03:05;;;;;;;0.00;0.00;;;;;;;21.47;46.87;99320.34;5075205;28;20047;-63
2023/06/17 05:05:32;;;;;;;0.10;0.10;;;;;;;21.42;46.85;99323.22;5070058;28;20032;-63
2023/06/17 05:08:00;;;;;;;0.00;0.00;;;;;;;21.84;46.71;99318.25;5090449;28;20394;-63
2023/06/17 05:10:27;;;;;;;0.00;0.00;;;;;;;23.06;44.18;99318.50;5076866;28;20222;-63
2023/06/17 05:12:55;;;;;;;0.00;0.00;;;;;;;22.90;44.06;99321.72;5074224;28;20056;-63
2023/06/17 05:15:22;;;;;;;0.00;0.00;;;;;;;23.08;44.48;99322.53;5091396;28;20051;-63
2023/06/17 05:17:52;;;;;;;0.00;0.00;;;;;;;23.27;43.91;99327.66;5073231;28;21846;-63
2023/06/17 05:20:20;;;;;;;0.00;0.00;;;;;;;23.71;43.58;99331.06;5076676;28;20454;-63
2023/06/17 05:22:48;;;;;;;0.00;0.00;;;;;;;23.76;43.70;99330.91;5077964;28;20424;-63
2023/06/17 05:25:21;;;;;;;0.00;0.00;;;;;;;23.98;43.57;99331.81;5072824;28;20513;-63
2023/06/17 05:27:51;;;;;;;0.00;0.00;;;;;;;23.93;44.25;99329.25;5072518;28;20040;-63
2023/06/17 05:30:22;;;;;;;0.10;0.10;;;;;;;24.90;42.53;99333.81;5076102;28;20117;-63
2023/06/17 05:32:54;;;;;;;0.00;0.00;;;;;;;25.04;42.42;99325.31;5075145;28;20056;-65
2023/06/17 05:35:21;;;;;;;0.00;0.00;;;;;;;23.92;44.65;99333.13;5075266;28;20047;-63
2023/06/17 05:37:49;;;;;;;0.00;0.00;;;;;;;24.72;43.15;99339.44;5075485;28;20067;-63
2023/06/17 05:40:17;;;;;;;0.00;0.00;;;;;;;25.56;41.64;99333.84;5076009;28;20500;-63
2023/06/17 05:42:45;;;;;;;0.00;0.00;;;;;;;25.11;42.89;99339.25;5078396;28;20052;-63
2023/06/17 05:45:13;;;;;;;0.00;0.00;;;;;;;25.17;41.94;99338.75;5076495;28;20049;-63
2023/06/17 05:47:41;;;;;;;0.00;0.00;;;;;;;25.46;41.68;99345.28;5062560;28;20101;-63
2023/06/17 05:50:11;;;;;;;0.00;0.00;;;;;;;25.04;40.99;99355.47;5075350;28;20050;-64
2023/06/17 05:52:45;;;;;;;0.00;0.00;;;;;;;24.19;42.67;99354.56;5066560;28;20053;-63
2023/06/17 05:55:14;;;;;;;0.00;0.00;;;;;;;24.52;41.68;99351.97;5080172;28;20036;-63
2023/06/17 05:57:41;;;;;;;0.00;0.00;;;;;;;24.34;40.51;99347.72;5077956;28;20032;-63
2023/06/17 06:00:10;;;;;;;0.00;0.00;;;;;;;25.05;39.95;99341.41;5076886;28;20542;-63
2023/06/17 06:02:41;;;;;;;0.00;0.00;;;;;;;26.34;38.18;99345.81;5082218;28;20059;-63
2023/06/17 06:05:14;;;;;;;0.00;0.00;;;;;;;26.95;36.87;99347.66;5085216;28;20494;-63
2023/06/17 06:07:43;;;;;;;0.00;0.00;;;;;;;27.29;36.38;99349.03;5079462;28;20105;-64
2023/06/17 06:10:11;;;;;;;0.00;0.00;;;;;;;26.93;36.88;99347.19;5077676;28;20048;-63
2023/06/17 06:12:43;;;;;;;0.00;0.00;;;;;;;26.97;36.43;99350.88;5076490;28;20486;-64
2023/06/17 06:15:10;;;;;;;0.00;0.00;;;;;;;26.92;36.96;99347.56;5088756;28;20151;-64
2023/06/17 06:17:38;;;;;;;0.00;0.00;;;;;;;27.54;35.76;99351.66;5076293;28;20040;-64
2023/06/17 06:20:07;;;;;;;0.00;0.00;;;;;;;28.20;34.85;99349.38;5089683;28;20160;-64
2023/06/17 06:22:36;;;;;;;0.00;0.00;;;;;;;28.12;34.85;99349.22;5075512;28;20124;-64
2023/06/17 06:25:05;;;;;;;0.00;0.00;;;;;;;27.09;36.16;99347.28;5071589;28;20083;-64
2023/06/17 06:27:33;;;;;;;0.00;0.00;;;;;;;27.03;37.38;99348.66;5072891;28;20068;-63
2023/06/17 06:30:01;;;;;;;0.00;0.00;;;;;;;26.56;37.16;99352.00;5087801;28;20095;-64
2023/06/17 06:32:30;;;;;;;0.00;0.00;;;;;;;28.40;35.04;99348.28;5092116;28;20359;-64
2023/06/17 06:34:58;;;;;;;0.00;0.00;;;;;;;28.68;34.18;99353.69;5079602;28;20056;-64
2023/06/17 06:37:27;;;;;;;0.00;0.00;;;;;;;29.33;34.08;99349.47;5072536;28;20043;-64
2023/06/17 06:39:59;;;;;;;0.00;0.00;;;;;;;27.77;36.34;99345.56;5082700;28;20036;-64
2023/06/17 06:42:27;;;;;;;0.00;0.00;;;;;;;27.44;37.17;99352.19;5092685;28;20457;-64
2023/06/17 06:45:08;;;;;;;0.00;0.00;;;;;;;28.35;35.21;99354.06;5076521;28;20193;-64
2023/06/17 06:47:36;;;;;;;0.00;0.00;;;;;;;28.35;36.07;99351.31;5073861;28;20383;-64
2023/06/17 06:50:03;;;;;;;0.00;0.00;;;;;;;29.43;34.37;99360.72;5077672;28;20048;-64
2023/06/17 06:52:31;;;;;;;0.00;0.00;;;;;;;30.34;32.71;99357.56;5076184;28;20048;-66
2023/06/17 06:55:00;;;;;;;0.00;0.00;;;;;;;30.30;32.53;99363.00;5070371;28;20036;-64
2023/06/17 06:57:28;;;;;;;0.00;0.00;;;;;;;30.39;32.50;99362.75;5074944;28;20347;-64
2023/06/17 06:59:56;;;;;;;;;;;;;;;31.25;31.11;99359.19;5081522;28;20122;-64
2023/06/17 07:02:26;;;;;;;0.00;0.00;;;;;;;31.30;30.88;99355.25;5071609;28;19931;-64
2023/06/17 07:04:56;;;;;;;0.00;0.00;;;;;;;29.31;33.43;99360.88;5078664;28;20124;-64
2023/06/17 07:07:30;;;;;;;0.00;0.00;;;;;;;27.73;35.76;99357.28;5079014;28;20055;-64
2023/06/17 07:09:58;;;;;;;0.00;0.00;;;;;;;28.21;34.78;99362.00;5091799;28;20081;-63
2023/06/17 07:12:27;;;;;;;0.17;0.00;;;;;;;29.19;34.21;99359.06;5075702;28;20041;-63
2023/06/17 07:14:54;;;;;;;0.00;0.00;;;;;;;29.63;33.91;99361.50;5074575;28;21434;-64
2023/06/17 07:17:25;;;;;;;0.00;0.00;;;;;;;30.82;31.80;99363.34;5079643;28;20055;-64
2023/06/17 07:19:55;;;;;;;0.00;0.00;;;;;;;29.64;33.98;99370.56;5079366;28;20052;-64
2023/06/17 07:22:23;;;;;;;0.10;0.10;;;;;;;30.72;32.14;99362.03;5064266;28;20459;-63
2023/06/17 07:24:51;;;;;;;0.00;0.00;;;;;;;31.03;31.82;99373.91;5074192;28;20550;-64
2023/06/17 07:27:20;;;;;;;0.00;0.00;;;;;;;30.43;31.63;99372.72;5079153;28;20506;-63
2023/06/17 07:29:50;;;;;;;0.00;0.00;;;;;;;31.97;30.81;99363.47;5074507;28;20048;-64
2023/06/17 07:32:19;;;;;;;0.00;0.00;;;;;;;32.72;29.18;99368.75;5074211;28;20064;-64
2023/06/17 07:34:48;;;;;;;0.00;0.00;;;;;;;32.33;30.24;99363.75;5078979;28;20041;-64
2023/06/17 07:37:16;;;;;;;0.22;0.10;;;;;;;31.69;30.55;99361.22;5077608;28;20109;-63
2023/06/17 07:39:46;;;;;;;0.00;0.00;;;;;;;32.13;30.36;99362.44;5071203;28;20041;-64
2023/06/17 07:42:15;;;;;;;0.00;0.00;;;;;;;31.96;30.33;99367.44;5080231;28;20085;-63
2023/06/17 07:44:43;;;;;;;0.00;0.00;;;;;;;32.05;30.24;99363.53;5076647;28;20478;-66
2023/06/17 07:47:12;;;;;;;0.00;0.00;;;;;;;30.18;31.82;99360.44;5076845;28;20047;-63
2023/06/17 07:49:40;;;;;;;0.00;0.00;;;;;;;30.77;32.24;99360.91;5074092;28;20134;-63
2023/06/17 07:52:08;;;;;;;0.00;0.00;;;;;;;31.14;31.61;99352.72;5074385;28;20044;-63
2023/06/17 07:54:36;;;;;;;0.00;0.00;;;;;;;31.32;32.12;99356.47;5068514;28;20059;-63
2023/06/17 07:57:05;;;;;;;0.00;0.00;;;;;;;30.19;32.68;99343.47;5073339;28;20041;-64
2023/06/17 07:59:32;;;;;;;;;;;;;;;31.76;30.43;99357.72;5078451;28;20342;-64
2023/06/17 08:02:00;;;;;;;0.00;0.00;;;;;;;30.97;31.30;99350.53;5073502;28;19924;-64
2023/06/17 08:04:29;;;;;;;0.00;0.00;;;;;;;30.27;31.85;99353.50;5072183;28;20044;-64
2023/06/17 08:06:57;;;;;;;0.00;0.00;;;;;;;30.33;31.94;99344.88;5083055;28;20120;-64
2023/06/17 08:09:25;;;;;;;0.00;0.00;;;;;;;30.79;31.43;99344.75;5075729;28;20550;-64
2023/06/17 08:11:56;;;;;;;0.30;0.00;;;;;;;30.98;31.05;99347.41;5072617;28;20307;-64
2023/06/17 08:14:23;;;;;;;0.00;0.00;;;;;;;31.43;29.90;99340.00;5081300;28;20101;-64
2023/06/17 08:16:51;;;;;;;0.00;0.00;;;;;;;29.84;31.65;99341.75;5076431;28;20040;-65
2023/06/17 08:19:19;;;;;;;0.00;0.00;;;;;;;29.68;32.46;99343.84;5078045;28;20077;-65
2023/06/17 08:21:49;;;;;;;0.00;0.00;;;;;;;31.32;31.17;99330.75;5077048;28;20151;-65
2023/06/17 08:24:21;;;;;;;0.00;0.00;;;;;;;30.86;30.71;99333.81;5073812;28;20044;-65
2023/06/17 08:26:52;;;;;;;0.00;0.00;;;;;;;30.98;30.38;99332.75;5072316;28;20044;-65
2023/06/17 08:29:20;;;;;;;0.00;0.00;;;;;;;31.39;30.45;99328.09;5080215;28;20147;-63
2023/06/17 08:31:48;;;;;;;;;;;;;;;31.97;30.52;99323.88;5070239;28;20044;-65
2023/06/17 08:34:15;;;;;;;0.00;0.00;;;;;;;31.55;30.43;99325.91;5071398;28;20362;-64
2023/06/17 08:36:44;;;;;;;0.00;0.00;;;;;;;31.45;30.35;99323.00;5078517;28;20399;-64
2023/06/17 08:39:13;;;;;;;0.00;0.00;;;;;;;28.91;32.99;99320.66;5077231;28;20450;-64
2023/06/17 08:41:42;;;;;;;0.00;0.00;;;;;;;30.08;31.65;99323.97;5074208;28;20040;-63
2023/06/17 08:44:11;;;;;;;0.00;0.00;;;;;;;30.70;30.83;99309.88;5068217;28;20155;-64
2023/06/17 08:46:39;;;;;;;0.00;0.00;;;;;;;29.91;31.93;99307.13;5079946;28;20494;-64
2023/06/17 08:49:07;;;;;;;0.00;0.00;;;;;;;29.36;32.85;99307.34;5076402;28;20131;-63
2023/06/17 08:51:35;;;;;;;0.00;0.00;;;;;;;29.27;32.24;99307.56;5078081;28;20052;-63
2023/06/17 08:54:03;;;;;;;0.00;0.00;;;;;;;29.41;31.46;99298.78;5073700;28;20032;-63
2023/06/17 08:56:36;;;;;;;0.00;0.00;;;;;;;28.09;33.21;99311.38;5072635;28;20480;-63
2023/06/17 08:59:04;;;;;;;0.00;0.00;;;;;;;28.40;33.08;99304.19;5071673;28;20474;-63
2023/06/17 09:01:32;;;;;;;0.00;0.00;;;;;;;29.33;32.73;99286.81;5072852;28;20322;-63
2023/06/17 09:04:00;;;;;;;0.00;0.00;;;;;;;29.76;31.89;99290.31;5077441;28;20044;-63
2023/06/17 09:06:28;;;;;;;0.00;0.00;;;;;;;27.21;35.68;99288.66;5074454;28;20083;-63
2023/06/17 09:08:57;;;;;;;0.00;0.00;;;;;;;30.31;31.53;99288.00;5076362;28;20143;-63
2023/06/17 09:11:25;;;;;;;0.00;0.00;;;;;;;31.47;30.16;99285.44;5075815;28;20529;-63
2023/06/17 09:13:54;;;;;;;;;;;;;;;31.83;30.38;99285.75;5077592;28;20131;-62
2023/06/17 09:16:25;;;;;;;;;;;;;;;32.25;28.89;99290.00;5077073;28;19928;-62
2023/06/17 09:18:55;;;;;;;0.00;0.00;;;;;;;31.77;28.74;99276.97;5074082;28;20302;-63
2023/06/17 09:21:22;;;;;;;0.00;0.00;;;;;;;32.34;28.88;99284.91;5083149;28;20135;-64
2023/06/17 09:23:55;;;;;;;0.00;0.00;;;;;;;31.59;28.28;99276.06;5074247;28;20638;-63
2023/06/17 09:26:27;;;;;;;0.00;0.00;;;;;;;31.95;28.84;99282.72;5080132;28;20043;-63
2023/06/17 09:29:00;;;;;;;0.08;0.00;;;;;;;29.48;31.40;99279.56;5078538;28;20048;-62
2023/06/17 09:31:28;;;;;;;0.00;0.00;;;;;;;28.23;32.63;99271.50;5070845;28;20048;-64
2023/06/17 09:33:56;;;;;;;0.00;0.00;;;;;;;27.81;33.12;99277.59;5085613;28;20075;-64
2023/06/17 09:36:27;;;;;;;0.00;0.00;;;;;;;29.80;30.78;99269.06;5079136;28;20049;-64
2023/06/17 09:38:54;;;;;;;0.00;0.00;;;;;;;29.94;30.82;99257.44;5083892;28;20059;-64
2023/06/17 09:41:23;;;;;;;0.00;0.00;;;;;;;30.51;29.92;99260.25;5075544;28;20094;-64
2023/06/17 09:43:52;;;;;;;0.00;0.00;;;;;;;30.88;29.34;99265.06;5074226;28;20721;-63
2023/06/17 09:46:29;;;;;;;0.00;0.00;;;;;;;30.19;30.12;99268.06;5078642;28;20036;-63
2023/06/17 09:48:57;;;;;;;0.10;0.00;;;;;;;31.65;29.57;99268.19;5074614;28;20407;-63
2023/06/17 09:51:25;;;;;;;0.00;0.00;;;;;;;32.74;28.22;99269.28;5074212;28;20047;-63
2023/06/17 09:53:54;;;;;;;0.05;0.05;;;;;;;30.09;30.72;99270.28;5080116;28;20490;-63
2023/06/17 09:56:21;;;;;;;0.00;0.00;;;;;;;31.29;29.10;99263.09;5078199;28;20032;-63
2023/06/17 09:58:50;;;;;;;0.00;0.00;;;;;;;30.74;29.89;99262.88;5079288;28;20517;-62
2023/06/17 10:01:18;;;;;;;0.00;0.00;;;;;;;31.02;30.43;99270.72;5075496;28;20305;-62
2023/06/17 10:03:47;;;;;;;0.00;0.00;;;;;;;29.31;31.37;99275.31;5082548;28;20491;-64
2023/06/17 10:06:19;;;;;;;0.00;0.00;;;;;;;28.99;31.25;99269.19;5075111;28;20460;-63
2023/06/17 10:08:49;;;;;;;0.00;0.00;;;;;;;29.53;32.04;99270.16;5077654;28;20399;-64
2023/06/17 10:11:19;;;;;;;0.03;0.03;;;;;;;30.99;30.23;99271.50;5076432;28;20052;-64
2023/06/17 10:13:51;;;;;;;0.00;0.00;;;;;;;31.49;29.00;99265.69;5076322;28;20048;-64
2023/06/17 10:16:19;;;;;;;0.00;0.00;;;;;;;29.75;29.73;99271.34;5077427;28;20055;-64
2023/06/17 10:18:49;;;;;;;0.00;0.00;;;;;;;29.82;30.13;99266.72;5081007;28;20139;-64
2023/06/17 10:21:17;;;;;;;0.00;0.00;;;;;;;29.74;30.84;99273.31;5078477;28;20468;-64
2023/06/17 10:23:45;;;;;;;0.00;0.00;;;;;;;30.65;29.84;99265.13;5072804;28;20051;-64
2023/06/17 10:26:17;;;;;;;0.00;0.00;;;;;;;29.65;29.86;99273.59;5074981;28;20047;-64
2023/06/17 10:28:45;;;;;;;0.00;0.00;;;;;;;30.23;29.50;99264.19;5077618;28;20391;-64
2023/06/17 10:31:24;;;;;;;0.00;0.00;;;;;;;30.65;30.04;99265.97;5075735;28;20040;-64
2023/06/17 10:33:54;;;;;;;0.00;0.00;;;;;;;31.15;27.74;99252.69;5080303;28;20056;-64
2023/06/17 10:36:23;;;;;;;0.00;0.00;;;;;;;30.48;28.88;99258.22;5078586;28;20118;-64
2023/06/17 10:38:55;;;;;;;0.05;0.05;;;;;;;30.43;28.91;99250.25;5083499;28;20072;-64
2023/06/17 10:41:24;;;;;;;0.00;0.00;;;;;;;31.52;27.87;99262.94;5073885;28;20067;-64
2023/06/17 10:43:52;;;;;;;;;;;;;;;30.80;28.93;99257.81;5072921;28;20040;-63
2023/06/17 10:46:26;;;;;;;0.00;0.00;;;;;;;29.83;30.21;99259.22;5080418;28;20015;-64
2023/06/17 10:49:00;;;;;;;0.00;0.00;;;;;;;30.69;29.51;99250.19;5075413;28;20044;-62
2023/06/17 10:51:27;;;;;;;0.00;0.00;;;;;;;30.80;29.34;99253.06;5074990;28;20067;-64
2023/06/17 10:53:55;;;;;;;0.00;0.00;;;;;;;30.68;29.30;99251.38;5074917;28;20064;-64
2023/06/17 10:56:26;;;;;;;0.00;0.00;;;;;;;31.22;28.84;99253.94;5079087;28;20618;-64
2023/06/17 10:58:54;;;;;;;0.20;0.10;;;;;;;30.73;29.12;99237.19;5081409;28;20043;-64
2023/06/17 11:01:21;;;;;;;0.00;0.00;;;;;;;30.21;29.35;99249.94;5074413;28;20061;-64
2023/06/17 11:03:49;;;;;;;0.00;0.00;;;;;;;30.85;29.06;99240.91;5072920;28;20094;-64
2023/06/17 11:06:18;;;;;;;0.00;0.00;;;;;;;30.55;29.24;99241.69;5083965;28;20081;-64
2023/06/17 11:08:46;;;;;;;0.00;0.00;;;;;;;31.52;29.25;99229.69;5070826;28;20134;-64
2023/06/17 11:11:14;;;;;;;0.10;0.00;;;;;;;32.20;28.13;99237.69;5077891;28;20105;-64
2023/06/17 11:13:44;;;;;;;0.10;0.00;;;;;;;31.88;27.53;99232.75;5073764;28;20497;-64
2023/06/17 11:16:11;;;;;;;0.00;0.00;;;;;;;31.62;27.73;99230.19;5077714;28;20042;-63
2023/06/17 11:18:42;;;;;;;0.00;0.00;;;;;;;31.26;28.50;99219.56;5073567;28;20063;-64
2023/06/17 11:21:10;;;;;;;0.00;0.00;;;;;;;30.68;28.81;99229.25;5073538;28;20101;-63
2023/06/17 11:23:39;;;;;;;0.08;0.00;;;;;;;31.29;28.38;99226.31;5072883;28;20049;-63
2023/06/17 11:26:07;;;;;;;0.00;0.00;;;;;;;29.22;29.91;99233.38;5067541;28;20048;-63
2023/06/17 11:28:36;;;;;;;0.00;0.00;;;;;;;28.46;30.82;99227.56;5074138;28;20040;-63
2023/06/17 11:31:03;;;;;;;0.05;0.00;;;;;;;27.72;31.64;99220.75;5077299;28;20047;-65
2023/06/17 11:33:32;;;;;;;0.00;0.00;;;;;;;29.21;30.03;99215.22;5072370;28;20075;-63
2023/06/17 11:36:00;;;;;;;0.00;0.00;;;;;;;29.08;29.11;99213.78;5071972;28;20457;-62
2023/06/17 11:38:28;;;;;;;0.03;0.03;;;;;;;29.48;28.50;99212.50;5078338;28;20136;-62
2023/06/17 11:40:57;;;;;;;0.10;0.00;;;;;;;28.88;29.49;99213.81;5076555;28;20395;-62
2023/06/17 11:43:26;;;;;;;0.00;0.00;;;;;;;30.44;28.99;99207.63;5067775;28;20084;-63
2023/06/17 11:45:56;;;;;;;0.10;0.10;;;;;;;31.03;27.25;99205.91;5070025;28;20044;-63